createdAt,value
2023-09-08T00:01:13.528Z,15.90
2023-09-08T00:06:20.816Z,11.30
2023-09-08T00:11:27.994Z,23.20
2023-09-08T00:16:35.241Z,12.30
2023-09-08T00:21:44.572Z,10.10
2023-09-08T00:26:51.684Z,8.90
2023-09-08T00:31:58.981Z,9.20
2023-09-08T00:37:08.563Z,9.20
2023-09-08T00:42:15.789Z,18.40
2023-09-08T00:47:23.097Z,10.40
2023-09-08T00:52:33.648Z,13.70
2023-09-08T00:57:41.151Z,9.60
2023-09-08T01:02:49.511Z,11.70
2023-09-08T01:07:58.232Z,12.70
2023-09-08T01:13:05.787Z,10.80
2023-09-08T01:18:13.770Z,11.40
2023-09-08T01:23:29.686Z,9.30
2023-09-08T01:28:38.305Z,13.30
2023-09-08T01:33:47.733Z,12.90
2023-09-08T01:38:54.911Z,11.00
2023-09-08T01:44:06.559Z,10.00
2023-09-08T01:49:14.866Z,11.20
2023-09-08T01:54:22.990Z,9.50
2023-09-08T01:59:30.125Z,11.70
2023-09-08T02:04:37.183Z,8.60
2023-09-08T02:09:45.572Z,13.90
2023-09-08T02:14:53.416Z,12.40
2023-09-08T02:20:00.721Z,14.70
2023-09-08T02:25:09.270Z,15.00
2023-09-08T02:30:17.227Z,10.90
2023-09-08T02:35:25.457Z,11.20
2023-09-08T02:40:35.429Z,11.00
2023-09-08T02:45:44.160Z,11.20
2023-09-08T02:50:51.333Z,13.80
2023-09-08T02:55:58.655Z,22.30
2023-09-08T03:01:15.874Z,21.90
2023-09-08T03:06:24.161Z,12.10
2023-09-08T03:16:38.099Z,28.50
2023-09-08T03:21:45.294Z,32.60
2023-09-08T03:26:52.517Z,39.00
2023-09-08T03:31:59.845Z,12.20
2023-09-08T03:37:07.298Z,15.50
2023-09-08T03:42:14.863Z,19.90
2023-09-08T03:47:22.153Z,25.70
2023-09-08T03:52:29.518Z,18.40
2023-09-08T03:57:36.644Z,12.80
2023-09-08T04:02:43.675Z,15.30
2023-09-08T04:07:50.849Z,20.20
2023-09-08T04:12:58.242Z,19.80
2023-09-08T04:23:11.876Z,16.80
2023-09-08T04:28:19.154Z,14.80
2023-09-08T04:33:27.443Z,30.40
2023-09-08T04:38:34.647Z,24.40
2023-09-08T04:43:41.715Z,19.60
2023-09-08T04:48:49.812Z,35.20
2023-09-08T04:53:57.866Z,33.80
2023-09-08T04:59:05.044Z,44.50
2023-09-08T05:04:12.542Z,22.90
2023-09-08T05:09:19.885Z,43.70
2023-09-08T05:14:27.255Z,39.60
2023-09-08T05:24:40.785Z,42.00
2023-09-08T05:29:48.052Z,94.00
2023-09-08T05:34:55.252Z,141.20
2023-09-08T05:45:11.450Z,59.60
2023-09-08T05:50:19.325Z,40.60
2023-09-08T06:00:32.606Z,36.70
2023-09-08T06:05:40.049Z,53.80
2023-09-08T06:15:52.908Z,56.50
2023-09-08T06:21:00.775Z,41.40
2023-09-08T06:26:08.032Z,23.20
2023-09-08T06:31:16.998Z,40.00
2023-09-08T06:36:33.785Z,22.40
2023-09-08T06:41:41.138Z,34.00
2023-09-08T06:46:49.838Z,34.40
2023-09-08T06:51:57.250Z,30.50
2023-09-08T06:57:04.641Z,21.90
2023-09-08T07:02:12.393Z,39.30
2023-09-08T07:07:21.672Z,42.80
2023-09-08T07:12:29.947Z,24.20
2023-09-08T07:17:37.377Z,21.20
2023-09-08T07:22:44.793Z,33.80
2023-09-08T07:27:54.053Z,19.00
2023-09-08T07:33:01.881Z,22.60
2023-09-08T07:38:09.597Z,24.90
2023-09-08T07:43:16.914Z,25.70
2023-09-08T07:48:24.833Z,23.70
2023-09-08T07:53:32.140Z,24.50
2023-09-08T07:58:40.950Z,23.90
2023-09-08T08:03:48.089Z,30.30
2023-09-08T08:08:55.262Z,23.60
2023-09-08T08:14:02.319Z,21.10
2023-09-08T08:19:09.837Z,15.50
2023-09-08T08:24:17.587Z,17.40
2023-09-08T08:29:24.821Z,12.50
2023-09-08T08:34:31.950Z,13.80
2023-09-08T08:39:39.116Z,9.90
2023-09-08T08:44:47.068Z,10.60
2023-09-08T08:49:55.525Z,8.40
2023-09-08T08:55:05.126Z,18.30
2023-09-08T09:00:16.719Z,17.10
2023-09-08T09:05:24.583Z,17.10
2023-09-08T09:10:33.824Z,24.10
2023-09-08T09:15:41.660Z,9.90
2023-09-08T09:20:59.007Z,16.50
2023-09-08T09:26:07.210Z,11.60
2023-09-08T09:31:14.656Z,11.60
2023-09-08T09:36:25.171Z,10.30
2023-09-08T09:41:33.259Z,4.70
2023-09-08T09:46:40.771Z,12.70
2023-09-08T09:51:49.605Z,4.90
2023-09-08T09:56:56.877Z,14.80
2023-09-08T10:02:04.820Z,11.60
2023-09-08T10:07:12.068Z,8.60
2023-09-08T10:12:20.739Z,6.00
2023-09-08T10:17:32.901Z,7.00
2023-09-08T10:22:44.221Z,11.00
2023-09-08T10:27:52.743Z,8.60
2023-09-08T10:33:01.700Z,13.10
2023-09-08T10:38:28.799Z,9.80
2023-09-08T10:43:37.403Z,16.70
2023-09-08T10:48:46.689Z,12.80
2023-09-08T10:53:53.855Z,24.00
2023-09-08T10:59:02.889Z,13.60
2023-09-08T11:04:14.486Z,29.30
2023-09-08T11:09:24.557Z,18.30
2023-09-08T11:14:31.768Z,14.40
2023-09-08T11:19:50.734Z,9.10
2023-09-08T11:24:59.829Z,9.00
2023-09-08T11:30:08.763Z,46.50
2023-09-08T11:35:17.484Z,14.90
2023-09-08T11:40:26.100Z,15.50
2023-09-08T11:45:37.921Z,13.60
2023-09-08T11:50:46.277Z,12.20
2023-09-08T11:55:53.769Z,17.50
2023-09-08T12:01:01.603Z,13.80
2023-09-08T12:06:09.100Z,17.60
2023-09-08T12:11:16.510Z,12.20
2023-09-08T12:16:24.427Z,9.50
2023-09-08T12:21:33.237Z,16.80
2023-09-08T12:26:41.660Z,7.30
2023-09-08T12:31:48.804Z,12.00
2023-09-08T12:36:59.045Z,6.60
2023-09-08T12:42:06.780Z,16.70
2023-09-08T12:47:15.108Z,18.40
2023-09-08T12:52:22.212Z,13.10
2023-09-08T12:57:29.392Z,13.50
2023-09-08T13:02:37.093Z,9.20
2023-09-08T13:07:44.401Z,21.00
2023-09-08T13:12:52.291Z,15.90
2023-09-08T13:17:59.534Z,22.60
2023-09-08T13:23:06.879Z,16.70
2023-09-08T13:28:13.933Z,18.20
2023-09-08T13:33:21.482Z,9.00
2023-09-08T13:38:28.752Z,10.10
2023-09-08T13:43:35.816Z,13.50
2023-09-08T13:48:44.009Z,9.70
2023-09-08T13:53:53.173Z,15.50
2023-09-08T13:59:03.409Z,12.70
2023-09-08T14:04:11.547Z,23.60
2023-09-08T14:09:42.591Z,21.70
2023-09-08T14:14:46.521Z,13.40
2023-09-08T14:19:53.669Z,16.90
2023-09-08T14:25:01.144Z,10.10
2023-09-08T14:30:09.878Z,8.70
2023-09-08T14:35:17.278Z,16.60
2023-09-08T14:40:26.256Z,12.70
2023-09-08T14:45:33.466Z,16.90
2023-09-08T14:50:40.525Z,16.10
2023-09-08T14:55:49.734Z,16.20
2023-09-08T15:00:56.905Z,14.40
2023-09-08T15:06:04.646Z,9.40
2023-09-08T15:11:11.930Z,12.70
2023-09-08T15:16:19.242Z,13.60
2023-09-08T15:21:31.171Z,13.00
2023-09-08T15:26:38.597Z,33.20
2023-09-08T15:31:45.767Z,11.30
2023-09-08T15:36:53.010Z,21.20
2023-09-08T15:42:00.157Z,23.80
2023-09-08T15:47:07.382Z,14.60
2023-09-08T15:52:16.775Z,10.60
2023-09-08T15:57:24.290Z,14.20
2023-09-08T16:02:31.377Z,16.20
2023-09-08T16:07:39.897Z,30.50
2023-09-08T16:12:46.905Z,16.60
2023-09-08T16:17:53.998Z,15.40
2023-09-08T16:23:01.358Z,15.50
2023-09-08T16:28:09.927Z,14.40
2023-09-08T16:33:17.077Z,18.30
2023-09-08T16:38:24.452Z,21.60
2023-09-08T16:43:31.759Z,7.90
2023-09-08T16:48:38.799Z,14.00
2023-09-08T16:53:45.966Z,20.90
2023-09-08T16:58:52.990Z,50.20
2023-09-08T17:09:07.517Z,64.40
2023-09-08T17:14:14.641Z,25.60
2023-09-08T17:19:21.910Z,19.90
2023-09-08T17:24:29.469Z,16.10
2023-09-08T17:29:36.676Z,34.10
2023-09-08T17:39:51.635Z,23.70
2023-09-08T17:44:58.852Z,49.40
2023-09-08T17:50:07.099Z,65.00
2023-09-08T17:55:15.142Z,40.80
2023-09-08T18:00:23.089Z,26.20
2023-09-08T18:05:30.307Z,34.30
2023-09-08T18:15:43.309Z,90.90
2023-09-08T18:25:56.687Z,143.50
2023-09-08T18:31:04.126Z,99.90
2023-09-08T18:36:11.511Z,76.10
2023-09-08T18:41:19.570Z,122.90
2023-09-08T18:46:26.817Z,180.90
2023-09-08T18:56:39.863Z,166.30
2023-09-08T19:01:46.972Z,183.90
2023-09-08T19:06:56.652Z,121.30
2023-09-08T19:12:04.276Z,81.20
2023-09-08T19:17:12.627Z,161.80
2023-09-08T19:22:20.093Z,131.90
2023-09-08T19:27:27.471Z,182.70
2023-09-08T19:37:43.096Z,104.60
2023-09-08T19:47:56.462Z,161.10
2023-09-08T19:58:09.550Z,102.70
2023-09-08T20:03:16.873Z,137.80
2023-09-08T20:08:24.088Z,103.50
2023-09-08T20:13:31.533Z,107.20
2023-09-08T20:18:39.423Z,98.90
2023-09-08T20:23:46.713Z,92.20
2023-09-08T20:28:54.103Z,97.40
2023-09-08T20:34:01.265Z,83.60
2023-09-08T20:39:08.715Z,94.30
2023-09-08T20:49:23.423Z,89.30
2023-09-08T20:54:32.606Z,81.40
2023-09-08T20:59:40.648Z,70.00
2023-09-08T21:04:48.516Z,53.70
2023-09-08T21:09:56.355Z,58.80
2023-09-08T21:15:03.858Z,81.90
2023-09-08T21:20:12.435Z,80.50
2023-09-08T21:25:19.754Z,49.10
2023-09-08T21:30:26.900Z,67.40
2023-09-08T21:35:35.096Z,47.30
2023-09-08T21:40:43.610Z,75.00
2023-09-08T21:45:52.431Z,63.60
2023-09-08T21:50:59.766Z,55.20
2023-09-08T21:56:07.396Z,54.00
2023-09-08T22:01:16.417Z,40.40
2023-09-08T22:06:23.772Z,40.00
2023-09-08T22:11:32.039Z,66.70
2023-09-08T22:16:39.194Z,32.90
2023-09-08T22:21:46.504Z,31.50
2023-09-08T22:26:53.644Z,39.80
2023-09-08T22:32:00.846Z,33.30
2023-09-08T22:37:08.264Z,38.10
2023-09-08T22:42:15.658Z,38.10
2023-09-08T22:47:23.038Z,34.20
2023-09-08T22:52:30.738Z,33.50
2023-09-08T23:02:44.098Z,25.90
2023-09-08T23:12:57.064Z,14.40
2023-09-08T23:18:04.510Z,22.30
2023-09-08T23:23:11.688Z,24.10
2023-09-08T23:28:18.785Z,26.80
2023-09-08T23:33:26.074Z,16.40
2023-09-08T23:38:33.254Z,19.60
2023-09-08T23:43:40.444Z,26.60
2023-09-08T23:48:47.916Z,20.60
2023-09-08T23:53:55.121Z,22.80
2023-09-08T23:59:04.684Z,19.50
